Besiktas Bosphorus — TCOG3 — position and weather

sailwx.info

Track history (hours):
 
Tides and Currents Weather Stations Pressure Air Temp Water Temp Dewpoint Dewpoint Depression Visibility Wind Speed Wind Dir Waves Ship Positions

Besiktas Bosphorus

Last reported at 2015-Apr-17 23:23 UTC. Time now 2015-Apr-19 14:12 UTC.
Position N 50°00' W 002°49'.

Length 274 m; draft 8.9 m.

Type: Ship (hazmat cat A). MMSI: 271000817.

Date/timePositionNaut miles runAvg speedWind from/ knotsBaromVisibWave heightAir tempDewpointWater temp
2015-Apr-17 23:23N 50°00' W 002°49'1515.0
2015-Apr-17 22:23N 50°04' W 002°26'3311.7
2015-Apr-17 19:33N 50°12' W 001°37'2010.0
2015-Apr-17 17:33N 50°18' W 001°07'1312.5
2015-Apr-17 16:30N 50°22' W 000°47'2814.5
2015-Apr-17 14:33N 50°30' W 000°05'1515.1
2015-Apr-17 13:33N 50°34' E 000°18'1514.6
2015-Apr-17 12:33N 50°39' E 000°40'1413.7
2015-Apr-17 11:33N 50°47' E 000°58'1212.1
2015-Apr-17 10:32N 50°55' E 001°12'1111.2
2015-Apr-17 09:33N 51°03' E 001°24'1312.8
2015-Apr-17 08:33N 51°11' E 001°40'1514.7
2015-Apr-17 07:33N 51°23' E 001°53'1615.8
2015-Apr-17 06:34N 51°35' E 002°10'1515.4
2015-Apr-17 05:33N 51°47' E 002°26'1414.5
2015-Apr-17 04:33N 51°58' E 002°40'1913.4
2015-Apr-17 03:08N 52°03' E 003°10'913.4
2015-Apr-17 02:26N 52°03' E 003°25'1112.6
2015-Apr-17 01:33N 52°04' E 003°43'9 9.4
2015-Apr-17 00:33N 52°02' E 003°58'5 5.1
2015-Apr-16 23:33N 51°58' E 004°04'0 0.0
2015-Apr-16 22:32N 51°58' E 004°04'0 0.0
2015-Apr-16 21:32N 51°58' E 004°04'0 0.0
2015-Apr-16 20:32N 51°58' E 004°04'0 0.0
2015-Apr-16 19:29N 51°58' E 004°04'0 0.0
2015-Apr-16 18:32N 51°58' E 004°04'0 0.0
2015-Apr-16 17:29N 51°58' E 004°04'0 0.0
2015-Apr-16 16:32N 51°58' E 004°04'0 0.0
2015-Apr-16 15:26N 51°58' E 004°04'0 0.0
2015-Apr-16 14:32N 51°58' E 004°04'0 0.0
2015-Apr-16 13:29N 51°58' E 004°04'0 0.0
2015-Apr-16 12:32N 51°58' E 004°04'0 0.0
2015-Apr-16 11:32N 51°58' E 004°04'0 0.0
2015-Apr-16 10:32N 51°58' E 004°04'0 0.0
2015-Apr-16 09:32N 51°58' E 004°04'0 0.0
2015-Apr-16 08:29N 51°58' E 004°04'0 0.0
2015-Apr-16 07:32N 51°58' E 004°04'0 0.0
2015-Apr-16 06:29N 51°58' E 004°04'0 0.0
2015-Apr-16 05:32N 51°58' E 004°04'0 0.0
2015-Apr-16 04:32N 51°58' E 004°04'0 0.0
2015-Apr-16 03:32N 51°58' E 004°04'0 0.0
2015-Apr-16 02:32N 51°58' E 004°04'0 0.0
2015-Apr-16 01:32N 51°58' E 004°04'0 0.0
2015-Apr-16 00:32N 51°58' E 004°04'0 0.0
2015-Apr-15 23:26N 51°58' E 004°04'0 0.0
2015-Apr-15 22:29N 51°58' E 004°04'0 0.0
2015-Apr-15 21:29N 51°58' E 004°04'0 0.0
2015-Apr-15 20:32N 51°58' E 004°04'0 0.0
2015-Apr-15 19:32N 51°58' E 004°04'0 0.0
2015-Apr-15 18:32N 51°58' E 004°04'0 0.0
2015-Apr-15 17:26N 51°58' E 004°04'0 0.0
2015-Apr-15 16:32N 51°58' E 004°04'0 0.0
2015-Apr-15 15:32N 51°58' E 004°04'0 0.0
2015-Apr-15 14:32N 51°58' E 004°04'0 0.0
2015-Apr-15 13:26N 51°58' E 004°04'0 0.0
2015-Apr-15 12:32N 51°58' E 004°04'0 0.0
2015-Apr-15 11:29N 51°58' E 004°04'0 0.0
2015-Apr-15 10:32N 51°58' E 004°04'0 0.0
2015-Apr-15 09:32N 51°58' E 004°04'0 0.0
2015-Apr-15 08:32N 51°58' E 004°04'0 0.0
2015-Apr-15 07:32N 51°58' E 004°04'0 0.0
2015-Apr-15 06:32N 51°58' E 004°04'0 0.0
2015-Apr-15 05:29N 51°58' E 004°04'0 0.0
2015-Apr-15 04:32N 51°58' E 004°04'0 0.1
2015-Apr-15 03:33N 51°58' E 004°04'3 3.1
2015-Apr-15 02:33N 51°60' E 004°00'1010.4
2015-Apr-15 01:33N 52°01' E 003°44'8 8.4
2015-Apr-15 00:33N 51°60' E 003°30'1110.1
2015-Apr-14 23:30N 51°58' E 003°13'4 4.1
2015-Apr-14 22:32N 51°56' E 003°08'0 0.0
2015-Apr-14 21:32N 51°56' E 003°08'0 0.0
2015-Apr-14 20:17N 51°56' E 003°08'0 0.1
2015-Apr-14 19:23N 51°55' E 003°08'0 0.2
2015-Apr-14 18:32N 51°55' E 003°08'0 0.1
2015-Apr-14 17:27N 51°55' E 003°08'0 0.0
2015-Apr-14 15:03N 51°55' E 003°08'0 0.4
2015-Apr-14 14:30N 51°56' E 003°08'0 0.1
2015-Apr-14 13:33N 51°56' E 003°08'0 0.0
2015-Apr-14 12:09N 51°56' E 003°08'0 0.0
2015-Apr-14 11:33N 51°56' E 003°08'0 0.0
2015-Apr-14 10:33N 51°56' E 003°08'0 0.0
2015-Apr-14 09:33N 51°56' E 003°08'0 0.0
2015-Apr-14 08:33N 51°56' E 003°08'0 0.0
2015-Apr-14 07:30N 51°56' E 003°08'0 0.2
2015-Apr-14 06:33N 51°55' E 003°08'0 0.1
2015-Apr-14 05:32N 51°55' E 003°08'0 0.0
2015-Apr-14 03:30N 51°55' E 003°08'0 0.0
2015-Apr-13 18:24N 51°55' E 003°08'0 0.1
2015-Apr-13 17:27N 51°55' E 003°08'0 0.0
2015-Apr-13 12:25N 51°56' E 003°08'0 0.1
2015-Apr-13 11:25N 51°56' E 003°08'0 0.0
2015-Apr-13 09:29N 51°56' E 003°08'0 0.0
2015-Apr-12 21:21N 51°56' E 003°08'0 0.0
2015-Apr-12 19:11N 51°56' E 003°08'0 0.0
2015-Apr-12 18:32N 51°56' E 003°08'0 0.0
2015-Apr-12 17:29N 51°56' E 003°08'0 0.0
2015-Apr-12 16:32N 51°56' E 003°08'0 0.3
2015-Apr-12 15:26N 51°55' E 003°08'0 0.1
2015-Apr-12 14:11N 51°55' E 003°08'0 0.1
2015-Apr-12 12:05N 51°56' E 003°08'0 0.1
2015-Apr-12 11:14N 51°56' E 003°08'0 0.0
2015-Apr-12 08:12N 51°56' E 003°08'0 0.0
2015-Apr-12 07:33N 51°56' E 003°08'0 0.0
2015-Apr-12 06:25N 51°56' E 003°08'0 0.0
2015-Apr-12 05:31N 51°56' E 003°08'0 0.1
2015-Apr-12 04:33N 51°55' E 003°08'0 0.2
2015-Apr-12 03:32N 51°55' E 003°08'0 0.1
2015-Apr-12 02:29N 51°55' E 003°08'0 0.0
2015-Apr-12 01:17N 51°55' E 003°08'0 0.0
2015-Apr-12 00:29N 51°55' E 003°08'0 0.1
2015-Apr-11 22:31N 51°56' E 003°08'0 0.0
2015-Apr-11 20:29N 51°56' E 003°08'0 0.0
2015-Apr-11 19:30N 51°56' E 003°08'0 0.0
2015-Apr-11 18:33N 51°56' E 003°08'0 0.0
2015-Apr-11 17:32N 51°56' E 003°08'0 0.0
2015-Apr-11 04:05N 51°56' E 003°08'0 0.1
2015-Apr-11 03:27N 51°56' E 003°08'0 0.1
2015-Apr-10 23:10N 51°55' E 003°08'0 0.1
2015-Apr-10 22:28N 51°55' E 003°08'0 0.1
2015-Apr-10 21:32N 51°56' E 003°08'0 0.1
2015-Apr-10 18:29N 51°56' E 003°08'0 0.0
2015-Apr-10 17:05N 51°56' E 003°08'0 0.3
2015-Apr-10 16:20N 51°55' E 003°08'5 5.9
2015-Apr-10 15:25N 51°51' E 003°02'1011.8
2015-Apr-10 14:32N 51°48' E 002°46'1111.4
2015-Apr-10 13:34N 51°42' E 002°31'1110.9
2015-Apr-10 12:33N 51°34' E 002°20'1110.8
2015-Apr-10 11:33N 51°25' E 002°09'1010.1
2015-Apr-10 10:33N 51°15' E 002°05'1010.0
2015-Apr-10 09:33N 51°10' E 001°52'1010.4
2015-Apr-10 08:33N 51°04' E 001°38'1211.6
2015-Apr-10 07:34N 50°55' E 001°27'1212.1
2015-Apr-10 06:34N 50°43' E 001°22'1212.0
2015-Apr-10 05:33N 50°35' E 001°09'1212.1
2015-Apr-10 04:33N 50°28' E 000°52'1212.2
2015-Apr-10 03:33N 50°25' E 000°34'1312.4
2015-Apr-10 02:32N 50°22' E 000°15'2713.6
2015-Apr-10 00:33N 50°15' W 000°26'1515.0
2015-Apr-09 23:33N 50°11' W 000°49'1515.3
2015-Apr-09 22:33N 50°07' W 001°12'1515.4
2015-Apr-09 21:33N 50°03' W 001°35'1514.5
2015-Apr-09 20:33N 49°60' W 001°57'1313.0
2015-Apr-09 19:33N 49°56' W 002°16'1211.9
2015-Apr-09 18:33N 49°52' W 002°34'1111.3
2015-Apr-09 17:33N 49°49' W 002°51'1110.9
2015-Apr-09 16:33N 49°44' W 003°06'1111.0
2015-Apr-09 15:33N 49°39' W 003°21'7611.7
2015-Apr-09 09:04N 49°00' W 005°01'  
Track history (hours):
 
Tides and Currents Weather Stations Pressure Air Temp Water Temp Dewpoint Dewpoint Depression Visibility Wind Speed Wind Dir Waves Ship Positions

Besiktas Bosphorus

Last reported at 2015-Apr-17 23:23 UTC. Time now 2015-Apr-19 14:12 UTC.
Position N 50°00' W 002°49'.

Length 274 m; draft 8.9 m.

Type: Ship (hazmat cat A). MMSI: 271000817.

Date/timePositionNaut miles runAvg speedWind from/ knotsBaromVisibWave heightAir tempDewpointWater temp
2015-Apr-17 23:23N 50°00' W 002°49'1515.0
2015-Apr-17 22:23N 50°04' W 002°26'3311.7
2015-Apr-17 19:33N 50°12' W 001°37'2010.0
2015-Apr-17 17:33N 50°18' W 001°07'1312.5
2015-Apr-17 16:30N 50°22' W 000°47'2814.5
2015-Apr-17 14:33N 50°30' W 000°05'1515.1
2015-Apr-17 13:33N 50°34' E 000°18'1514.6
2015-Apr-17 12:33N 50°39' E 000°40'1413.7
2015-Apr-17 11:33N 50°47' E 000°58'1212.1
2015-Apr-17 10:32N 50°55' E 001°12'1111.2
2015-Apr-17 09:33N 51°03' E 001°24'1312.8
2015-Apr-17 08:33N 51°11' E 001°40'1514.7
2015-Apr-17 07:33N 51°23' E 001°53'1615.8
2015-Apr-17 06:34N 51°35' E 002°10'1515.4
2015-Apr-17 05:33N 51°47' E 002°26'1414.5
2015-Apr-17 04:33N 51°58' E 002°40'1913.4
2015-Apr-17 03:08N 52°03' E 003°10'913.4
2015-Apr-17 02:26N 52°03' E 003°25'1112.6
2015-Apr-17 01:33N 52°04' E 003°43'9 9.4
2015-Apr-17 00:33N 52°02' E 003°58'5 5.1
2015-Apr-16 23:33N 51°58' E 004°04'0 0.0
2015-Apr-16 22:32N 51°58' E 004°04'0 0.0
2015-Apr-16 21:32N 51°58' E 004°04'0 0.0
2015-Apr-16 20:32N 51°58' E 004°04'0 0.0
2015-Apr-16 19:29N 51°58' E 004°04'0 0.0
2015-Apr-16 18:32N 51°58' E 004°04'0 0.0
2015-Apr-16 17:29N 51°58' E 004°04'0 0.0
2015-Apr-16 16:32N 51°58' E 004°04'0 0.0
2015-Apr-16 15:26N 51°58' E 004°04'0 0.0
2015-Apr-16 14:32N 51°58' E 004°04'0 0.0
2015-Apr-16 13:29N 51°58' E 004°04'0 0.0
2015-Apr-16 12:32N 51°58' E 004°04'0 0.0
2015-Apr-16 11:32N 51°58' E 004°04'0 0.0
2015-Apr-16 10:32N 51°58' E 004°04'0 0.0
2015-Apr-16 09:32N 51°58' E 004°04'0 0.0
2015-Apr-16 08:29N 51°58' E 004°04'0 0.0
2015-Apr-16 07:32N 51°58' E 004°04'0 0.0
2015-Apr-16 06:29N 51°58' E 004°04'0 0.0
2015-Apr-16 05:32N 51°58' E 004°04'0 0.0
2015-Apr-16 04:32N 51°58' E 004°04'0 0.0
2015-Apr-16 03:32N 51°58' E 004°04'0 0.0
2015-Apr-16 02:32N 51°58' E 004°04'0 0.0
2015-Apr-16 01:32N 51°58' E 004°04'0 0.0
2015-Apr-16 00:32N 51°58' E 004°04'0 0.0
2015-Apr-15 23:26N 51°58' E 004°04'0 0.0
2015-Apr-15 22:29N 51°58' E 004°04'0 0.0
2015-Apr-15 21:29N 51°58' E 004°04'0 0.0
2015-Apr-15 20:32N 51°58' E 004°04'0 0.0
2015-Apr-15 19:32N 51°58' E 004°04'0 0.0
2015-Apr-15 18:32N 51°58' E 004°04'0 0.0
2015-Apr-15 17:26N 51°58' E 004°04'0 0.0
2015-Apr-15 16:32N 51°58' E 004°04'0 0.0
2015-Apr-15 15:32N 51°58' E 004°04'0 0.0
2015-Apr-15 14:32N 51°58' E 004°04'0 0.0
2015-Apr-15 13:26N 51°58' E 004°04'0 0.0
2015-Apr-15 12:32N 51°58' E 004°04'0 0.0
2015-Apr-15 11:29N 51°58' E 004°04'0 0.0
2015-Apr-15 10:32N 51°58' E 004°04'0 0.0
2015-Apr-15 09:32N 51°58' E 004°04'0 0.0
2015-Apr-15 08:32N 51°58' E 004°04'0 0.0
2015-Apr-15 07:32N 51°58' E 004°04'0 0.0
2015-Apr-15 06:32N 51°58' E 004°04'0 0.0
2015-Apr-15 05:29N 51°58' E 004°04'0 0.0
2015-Apr-15 04:32N 51°58' E 004°04'0 0.1
2015-Apr-15 03:33N 51°58' E 004°04'3 3.1
2015-Apr-15 02:33N 51°60' E 004°00'1010.4
2015-Apr-15 01:33N 52°01' E 003°44'8 8.4
2015-Apr-15 00:33N 51°60' E 003°30'1110.1
2015-Apr-14 23:30N 51°58' E 003°13'4 4.1
2015-Apr-14 22:32N 51°56' E 003°08'0 0.0
2015-Apr-14 21:32N 51°56' E 003°08'0 0.0
2015-Apr-14 20:17N 51°56' E 003°08'0 0.1
2015-Apr-14 19:23N 51°55' E 003°08'0 0.2
2015-Apr-14 18:32N 51°55' E 003°08'0 0.1
2015-Apr-14 17:27N 51°55' E 003°08'0 0.0
2015-Apr-14 15:03N 51°55' E 003°08'0 0.4
2015-Apr-14 14:30N 51°56' E 003°08'0 0.1
2015-Apr-14 13:33N 51°56' E 003°08'0 0.0
2015-Apr-14 12:09N 51°56' E 003°08'0 0.0
2015-Apr-14 11:33N 51°56' E 003°08'0 0.0
2015-Apr-14 10:33N 51°56' E 003°08'0 0.0
2015-Apr-14 09:33N 51°56' E 003°08'0 0.0
2015-Apr-14 08:33N 51°56' E 003°08'0 0.0
2015-Apr-14 07:30N 51°56' E 003°08'0 0.2
2015-Apr-14 06:33N 51°55' E 003°08'0 0.1
2015-Apr-14 05:32N 51°55' E 003°08'0 0.0
2015-Apr-14 03:30N 51°55' E 003°08'0 0.0
2015-Apr-13 18:24N 51°55' E 003°08'0 0.1
2015-Apr-13 17:27N 51°55' E 003°08'0 0.0
2015-Apr-13 12:25N 51°56' E 003°08'0 0.1
2015-Apr-13 11:25N 51°56' E 003°08'0 0.0
2015-Apr-13 09:29N 51°56' E 003°08'0 0.0
2015-Apr-12 21:21N 51°56' E 003°08'0 0.0
2015-Apr-12 19:11N 51°56' E 003°08'0 0.0
2015-Apr-12 18:32N 51°56' E 003°08'0 0.0
2015-Apr-12 17:29N 51°56' E 003°08'0 0.0
2015-Apr-12 16:32N 51°56' E 003°08'0 0.3
2015-Apr-12 15:26N 51°55' E 003°08'0 0.1
2015-Apr-12 14:11N 51°55' E 003°08'0 0.1
2015-Apr-12 12:05N 51°56' E 003°08'0 0.1
2015-Apr-12 11:14N 51°56' E 003°08'0 0.0
2015-Apr-12 08:12N 51°56' E 003°08'0 0.0
2015-Apr-12 07:33N 51°56' E 003°08'0 0.0
2015-Apr-12 06:25N 51°56' E 003°08'0 0.0
2015-Apr-12 05:31N 51°56' E 003°08'0 0.1
2015-Apr-12 04:33N 51°55' E 003°08'0 0.2
2015-Apr-12 03:32N 51°55' E 003°08'0 0.1
2015-Apr-12 02:29N 51°55' E 003°08'0 0.0
2015-Apr-12 01:17N 51°55' E 003°08'0 0.0
2015-Apr-12 00:29N 51°55' E 003°08'0 0.1
2015-Apr-11 22:31N 51°56' E 003°08'0 0.0
2015-Apr-11 20:29N 51°56' E 003°08'0 0.0
2015-Apr-11 19:30N 51°56' E 003°08'0 0.0
2015-Apr-11 18:33N 51°56' E 003°08'0 0.0
2015-Apr-11 17:32N 51°56' E 003°08'0 0.0
2015-Apr-11 04:05N 51°56' E 003°08'0 0.1
2015-Apr-11 03:27N 51°56' E 003°08'0 0.1
2015-Apr-10 23:10N 51°55' E 003°08'0 0.1
2015-Apr-10 22:28N 51°55' E 003°08'0 0.1
2015-Apr-10 21:32N 51°56' E 003°08'0 0.1
2015-Apr-10 18:29N 51°56' E 003°08'0 0.0
2015-Apr-10 17:05N 51°56' E 003°08'0 0.3
2015-Apr-10 16:20N 51°55' E 003°08'5 5.9
2015-Apr-10 15:25N 51°51' E 003°02'1011.8
2015-Apr-10 14:32N 51°48' E 002°46'1111.4
2015-Apr-10 13:34N 51°42' E 002°31'1110.9
2015-Apr-10 12:33N 51°34' E 002°20'1110.8
2015-Apr-10 11:33N 51°25' E 002°09'1010.1
2015-Apr-10 10:33N 51°15' E 002°05'1010.0
2015-Apr-10 09:33N 51°10' E 001°52'1010.4
2015-Apr-10 08:33N 51°04' E 001°38'1211.6
2015-Apr-10 07:34N 50°55' E 001°27'1212.1
2015-Apr-10 06:34N 50°43' E 001°22'1212.0
2015-Apr-10 05:33N 50°35' E 001°09'1212.1
2015-Apr-10 04:33N 50°28' E 000°52'1212.2
2015-Apr-10 03:33N 50°25' E 000°34'1312.4
2015-Apr-10 02:32N 50°22' E 000°15'2713.6
2015-Apr-10 00:33N 50°15' W 000°26'1515.0
2015-Apr-09 23:33N 50°11' W 000°49'1515.3
2015-Apr-09 22:33N 50°07' W 001°12'1515.4
2015-Apr-09 21:33N 50°03' W 001°35'1514.5
2015-Apr-09 20:33N 49°60' W 001°57'1313.0
2015-Apr-09 19:33N 49°56' W 002°16'1211.9
2015-Apr-09 18:33N 49°52' W 002°34'1111.3
2015-Apr-09 17:33N 49°49' W 002°51'1110.9
2015-Apr-09 16:33N 49°44' W 003°06'1111.0
2015-Apr-09 15:33N 49°39' W 003°21'7611.7
2015-Apr-09 09:04N 49°00' W 005°01'  

Dump ship's entire track history